sensor_id;sensor_type;location;lat;lon;timestamp;P1;durP1;ratioP1;P2;durP2;ratioP2
44985;SDS011;30721;49.380;7.736;2023-04-24T00:01:22;3.03;;;0.77;;
44985;SDS011;30721;49.380;7.736;2023-04-24T00:03:47;2.53;;;0.73;;
44985;SDS011;30721;49.380;7.736;2023-04-24T00:06:13;0.70;;;0.60;;
44985;SDS011;30721;49.380;7.736;2023-04-24T00:08:38;0.77;;;0.52;;
44985;SDS011;30721;49.380;7.736;2023-04-24T00:11:03;2.42;;;0.98;;
44985;SDS011;30721;49.380;7.736;2023-04-24T00:13:29;3.40;;;0.90;;
44985;SDS011;30721;49.380;7.736;2023-04-24T00:15:55;1.85;;;0.98;;
44985;SDS011;30721;49.380;7.736;2023-04-24T00:18:20;2.50;;;0.80;;
44985;SDS011;30721;49.380;7.736;2023-04-24T00:20:46;1.20;;;0.93;;
44985;SDS011;30721;49.380;7.736;2023-04-24T00:23:12;2.00;;;0.60;;
44985;SDS011;30721;49.380;7.736;2023-04-24T00:25:37;2.40;;;0.63;;
44985;SDS011;30721;49.380;7.736;2023-04-24T00:28:03;2.67;;;1.25;;
44985;SDS011;30721;49.380;7.736;2023-04-24T00:30:29;1.33;;;0.80;;
44985;SDS011;30721;49.380;7.736;2023-04-24T00:32:54;1.20;;;0.52;;
44985;SDS011;30721;49.380;7.736;2023-04-24T00:35:20;1.58;;;0.65;;
44985;SDS011;30721;49.380;7.736;2023-04-24T00:37:45;1.95;;;0.80;;
44985;SDS011;30721;49.380;7.736;2023-04-24T00:40:11;1.60;;;0.80;;
44985;SDS011;30721;49.380;7.736;2023-04-24T00:42:36;0.80;;;0.50;;
44985;SDS011;30721;49.380;7.736;2023-04-24T00:45:02;1.40;;;0.85;;
44985;SDS011;30721;49.380;7.736;2023-04-24T00:47:28;0.98;;;0.65;;
44985;SDS011;30721;49.380;7.736;2023-04-24T00:49:54;4.03;;;0.98;;
44985;SDS011;30721;49.380;7.736;2023-04-24T00:52:20;4.65;;;1.27;;
44985;SDS011;30721;49.380;7.736;2023-04-24T00:54:45;2.05;;;0.80;;
44985;SDS011;30721;49.380;7.736;2023-04-24T00:57:11;2.00;;;0.85;;
44985;SDS011;30721;49.380;7.736;2023-04-24T00:59:38;1.40;;;1.08;;
44985;SDS011;30721;49.380;7.736;2023-04-24T01:02:04;1.67;;;0.65;;
44985;SDS011;30721;49.380;7.736;2023-04-24T01:04:30;1.30;;;0.60;;
44985;SDS011;30721;49.380;7.736;2023-04-24T01:06:56;1.60;;;0.80;;
44985;SDS011;30721;49.380;7.736;2023-04-24T01:09:22;1.20;;;0.70;;
44985;SDS011;30721;49.380;7.736;2023-04-24T01:11:48;1.95;;;0.50;;
44985;SDS011;30721;49.380;7.736;2023-04-24T01:14:14;1.60;;;0.80;;
44985;SDS011;30721;49.380;7.736;2023-04-24T01:16:40;1.85;;;0.70;;
44985;SDS011;30721;49.380;7.736;2023-04-24T01:19:06;1.48;;;0.57;;
44985;SDS011;30721;49.380;7.736;2023-04-24T01:21:33;2.55;;;0.50;;
44985;SDS011;30721;49.380;7.736;2023-04-24T01:24:00;2.40;;;0.82;;
44985;SDS011;30721;49.380;7.736;2023-04-24T01:26:25;2.22;;;0.70;;
44985;SDS011;30721;49.380;7.736;2023-04-24T01:28:50;2.53;;;0.77;;
44985;SDS011;30721;49.380;7.736;2023-04-24T01:31:16;2.08;;;0.70;;
44985;SDS011;30721;49.380;7.736;2023-04-24T01:33:41;4.38;;;0.80;;
44985;SDS011;30721;49.380;7.736;2023-04-24T01:36:08;2.08;;;0.90;;
44985;SDS011;30721;49.380;7.736;2023-04-24T01:38:35;1.20;;;0.90;;
44985;SDS011;30721;49.380;7.736;2023-04-24T01:41:01;2.65;;;1.00;;
44985;SDS011;30721;49.380;7.736;2023-04-24T01:43:26;0.80;;;0.65;;
44985;SDS011;30721;49.380;7.736;2023-04-24T01:45:51;1.65;;;0.80;;
44985;SDS011;30721;49.380;7.736;2023-04-24T01:48:17;2.05;;;1.20;;
44985;SDS011;30721;49.380;7.736;2023-04-24T01:50:42;1.30;;;0.88;;
44985;SDS011;30721;49.380;7.736;2023-04-24T01:53:08;1.30;;;1.15;;
44985;SDS011;30721;49.380;7.736;2023-04-24T01:55:33;1.60;;;1.02;;
44985;SDS011;30721;49.380;7.736;2023-04-24T01:57:59;2.28;;;1.10;;
44985;SDS011;30721;49.380;7.736;2023-04-24T02:00:25;4.57;;;2.00;;
44985;SDS011;30721;49.380;7.736;2023-04-24T02:02:50;2.53;;;1.40;;
44985;SDS011;30721;49.380;7.736;2023-04-24T02:05:16;2.45;;;1.52;;
44985;SDS011;30721;49.380;7.736;2023-04-24T02:07:41;1.35;;;1.10;;
44985;SDS011;30721;49.380;7.736;2023-04-24T02:10:06;1.30;;;1.02;;
44985;SDS011;30721;49.380;7.736;2023-04-24T02:12:32;3.60;;;1.45;;
44985;SDS011;30721;49.380;7.736;2023-04-24T02:14:58;1.75;;;1.35;;
44985;SDS011;30721;49.380;7.736;2023-04-24T02:17:23;3.03;;;2.10;;
44985;SDS011;30721;49.380;7.736;2023-04-24T02:19:48;2.55;;;1.92;;
44985;SDS011;30721;49.380;7.736;2023-04-24T02:22:14;2.72;;;1.90;;
44985;SDS011;30721;49.380;7.736;2023-04-24T02:24:39;2.58;;;1.80;;
44985;SDS011;30721;49.380;7.736;2023-04-24T02:27:05;3.75;;;2.28;;
44985;SDS011;30721;49.380;7.736;2023-04-24T02:29:30;2.38;;;1.95;;
44985;SDS011;30721;49.380;7.736;2023-04-24T02:31:56;5.00;;;2.30;;
44985;SDS011;30721;49.380;7.736;2023-04-24T02:34:21;2.63;;;2.40;;
44985;SDS011;30721;49.380;7.736;2023-04-24T02:36:48;3.65;;;2.13;;
44985;SDS011;30721;49.380;7.736;2023-04-24T02:39:13;3.58;;;2.05;;
44985;SDS011;30721;49.380;7.736;2023-04-24T02:41:41;3.75;;;2.17;;
44985;SDS011;30721;49.380;7.736;2023-04-24T02:44:07;3.13;;;2.47;;
44985;SDS011;30721;49.380;7.736;2023-04-24T02:46:32;2.90;;;2.40;;
44985;SDS011;30721;49.380;7.736;2023-04-24T02:48:57;2.55;;;2.30;;
44985;SDS011;30721;49.380;7.736;2023-04-24T02:51:23;2.92;;;2.38;;
44985;SDS011;30721;49.380;7.736;2023-04-24T02:53:48;2.50;;;2.30;;
44985;SDS011;30721;49.380;7.736;2023-04-24T02:56:13;3.83;;;2.53;;
44985;SDS011;30721;49.380;7.736;2023-04-24T02:58:59;3.38;;;2.60;;
44985;SDS011;30721;49.380;7.736;2023-04-24T03:01:24;3.90;;;2.38;;
44985;SDS011;30721;49.380;7.736;2023-04-24T03:03:50;3.17;;;1.98;;
44985;SDS011;30721;49.380;7.736;2023-04-24T03:06:15;3.50;;;2.40;;
44985;SDS011;30721;49.380;7.736;2023-04-24T03:08:40;2.75;;;2.20;;
44985;SDS011;30721;49.380;7.736;2023-04-24T03:11:06;2.75;;;2.35;;
44985;SDS011;30721;49.380;7.736;2023-04-24T03:13:31;3.72;;;2.25;;
44985;SDS011;30721;49.380;7.736;2023-04-24T03:15:56;3.60;;;2.30;;
44985;SDS011;30721;49.380;7.736;2023-04-24T03:18:22;2.97;;;2.70;;
44985;SDS011;30721;49.380;7.736;2023-04-24T03:20:47;4.65;;;2.75;;
44985;SDS011;30721;49.380;7.736;2023-04-24T03:23:13;4.38;;;2.70;;
44985;SDS011;30721;49.380;7.736;2023-04-24T03:25:38;3.58;;;2.55;;
44985;SDS011;30721;49.380;7.736;2023-04-24T03:28:03;4.35;;;2.60;;
44985;SDS011;30721;49.380;7.736;2023-04-24T03:30:29;3.95;;;3.25;;
44985;SDS011;30721;49.380;7.736;2023-04-24T03:32:55;5.50;;;3.35;;
44985;SDS011;30721;49.380;7.736;2023-04-24T03:35:20;3.97;;;3.47;;
44985;SDS011;30721;49.380;7.736;2023-04-24T03:37:47;4.20;;;3.15;;
44985;SDS011;30721;49.380;7.736;2023-04-24T03:40:12;5.05;;;3.45;;
44985;SDS011;30721;49.380;7.736;2023-04-24T03:42:37;3.47;;;3.17;;
44985;SDS011;30721;49.380;7.736;2023-04-24T03:45:03;4.03;;;3.20;;
44985;SDS011;30721;49.380;7.736;2023-04-24T03:47:28;4.80;;;3.60;;
44985;SDS011;30721;49.380;7.736;2023-04-24T03:49:54;4.03;;;2.80;;
44985;SDS011;30721;49.380;7.736;2023-04-24T03:52:20;4.97;;;3.25;;
44985;SDS011;30721;49.380;7.736;2023-04-24T03:54:46;4.20;;;3.00;;
44985;SDS011;30721;49.380;7.736;2023-04-24T03:57:11;4.85;;;2.90;;
44985;SDS011;30721;49.380;7.736;2023-04-24T03:59:37;3.63;;;3.08;;
44985;SDS011;30721;49.380;7.736;2023-04-24T04:02:02;3.83;;;3.38;;
44985;SDS011;30721;49.380;7.736;2023-04-24T04:04:27;3.15;;;2.85;;
44985;SDS011;30721;49.380;7.736;2023-04-24T04:06:53;3.70;;;3.00;;
44985;SDS011;30721;49.380;7.736;2023-04-24T04:09:18;3.83;;;3.30;;
44985;SDS011;30721;49.380;7.736;2023-04-24T04:11:43;4.22;;;3.45;;
44985;SDS011;30721;49.380;7.736;2023-04-24T04:14:09;3.78;;;3.40;;
44985;SDS011;30721;49.380;7.736;2023-04-24T04:16:34;5.15;;;3.30;;
44985;SDS011;30721;49.380;7.736;2023-04-24T04:19:01;4.82;;;3.65;;
44985;SDS011;30721;49.380;7.736;2023-04-24T04:21:28;6.20;;;3.75;;
44985;SDS011;30721;49.380;7.736;2023-04-24T04:23:53;4.63;;;3.78;;
44985;SDS011;30721;49.380;7.736;2023-04-24T04:26:18;6.22;;;3.80;;
44985;SDS011;30721;49.380;7.736;2023-04-24T04:28:46;6.88;;;4.97;;
44985;SDS011;30721;49.380;7.736;2023-04-24T04:31:12;6.28;;;4.78;;
44985;SDS011;30721;49.380;7.736;2023-04-24T04:33:38;6.00;;;4.03;;
44985;SDS011;30721;49.380;7.736;2023-04-24T04:36:04;8.93;;;5.00;;
44985;SDS011;30721;49.380;7.736;2023-04-24T04:38:30;7.53;;;5.05;;
44985;SDS011;30721;49.380;7.736;2023-04-24T04:40:55;5.72;;;4.82;;
44985;SDS011;30721;49.380;7.736;2023-04-24T04:43:24;5.80;;;5.10;;
44985;SDS011;30721;49.380;7.736;2023-04-24T04:45:49;7.35;;;4.45;;
44985;SDS011;30721;49.380;7.736;2023-04-24T04:48:16;6.15;;;4.63;;
44985;SDS011;30721;49.380;7.736;2023-04-24T04:50:42;7.50;;;4.47;;
44985;SDS011;30721;49.380;7.736;2023-04-24T04:53:08;7.43;;;4.80;;
44985;SDS011;30721;49.380;7.736;2023-04-24T04:55:33;5.93;;;4.68;;
44985;SDS011;30721;49.380;7.736;2023-04-24T04:57:58;9.85;;;4.93;;
44985;SDS011;30721;49.380;7.736;2023-04-24T05:00:25;8.18;;;5.53;;
44985;SDS011;30721;49.380;7.736;2023-04-24T05:02:50;7.65;;;5.20;;
44985;SDS011;30721;49.380;7.736;2023-04-24T05:05:16;7.13;;;5.05;;
44985;SDS011;30721;49.380;7.736;2023-04-24T05:07:43;8.07;;;4.95;;
44985;SDS011;30721;49.380;7.736;2023-04-24T05:10:08;6.70;;;5.00;;
44985;SDS011;30721;49.380;7.736;2023-04-24T05:12:34;7.97;;;4.97;;
44985;SDS011;30721;49.380;7.736;2023-04-24T05:14:59;7.75;;;5.38;;
44985;SDS011;30721;49.380;7.736;2023-04-24T05:17:25;8.27;;;5.00;;
44985;SDS011;30721;49.380;7.736;2023-04-24T05:19:51;8.13;;;5.68;;
44985;SDS011;30721;49.380;7.736;2023-04-24T05:22:16;6.57;;;4.90;;
44985;SDS011;30721;49.380;7.736;2023-04-24T05:24:43;7.03;;;5.43;;
44985;SDS011;30721;49.380;7.736;2023-04-24T05:27:09;7.10;;;4.90;;
44985;SDS011;30721;49.380;7.736;2023-04-24T05:29:34;6.43;;;5.00;;
44985;SDS011;30721;49.380;7.736;2023-04-24T05:32:00;7.20;;;5.03;;
44985;SDS011;30721;49.380;7.736;2023-04-24T05:34:26;7.75;;;4.90;;
44985;SDS011;30721;49.380;7.736;2023-04-24T05:36:52;6.22;;;5.00;;
44985;SDS011;30721;49.380;7.736;2023-04-24T05:39:18;6.07;;;5.18;;
44985;SDS011;30721;49.380;7.736;2023-04-24T05:41:44;5.88;;;4.80;;
44985;SDS011;30721;49.380;7.736;2023-04-24T05:44:10;6.47;;;4.60;;
44985;SDS011;30721;49.380;7.736;2023-04-24T05:46:35;6.38;;;4.43;;
44985;SDS011;30721;49.380;7.736;2023-04-24T05:49:00;5.53;;;4.40;;
44985;SDS011;30721;49.380;7.736;2023-04-24T05:51:27;5.97;;;4.60;;
44985;SDS011;30721;49.380;7.736;2023-04-24T05:53:52;5.70;;;4.00;;
44985;SDS011;30721;49.380;7.736;2023-04-24T05:56:18;5.38;;;4.10;;
44985;SDS011;30721;49.380;7.736;2023-04-24T05:58:43;6.15;;;4.20;;
44985;SDS011;30721;49.380;7.736;2023-04-24T06:01:09;6.40;;;4.07;;
44985;SDS011;30721;49.380;7.736;2023-04-24T06:03:34;5.10;;;4.28;;
44985;SDS011;30721;49.380;7.736;2023-04-24T06:05:59;5.72;;;4.13;;
44985;SDS011;30721;49.380;7.736;2023-04-24T06:08:25;5.30;;;4.03;;
44985;SDS011;30721;49.380;7.736;2023-04-24T06:10:51;5.38;;;3.78;;
44985;SDS011;30721;49.380;7.736;2023-04-24T06:13:16;4.93;;;3.78;;
44985;SDS011;30721;49.380;7.736;2023-04-24T06:15:42;4.35;;;3.60;;
44985;SDS011;30721;49.380;7.736;2023-04-24T06:18:07;4.30;;;3.65;;
44985;SDS011;30721;49.380;7.736;2023-04-24T06:20:32;5.47;;;4.00;;
44985;SDS011;30721;49.380;7.736;2023-04-24T06:22:58;5.13;;;4.07;;
44985;SDS011;30721;49.380;7.736;2023-04-24T06:25:26;4.20;;;3.72;;
44985;SDS011;30721;49.380;7.736;2023-04-24T06:27:53;4.80;;;3.70;;
44985;SDS011;30721;49.380;7.736;2023-04-24T06:30:19;4.57;;;3.85;;
44985;SDS011;30721;49.380;7.736;2023-04-24T06:32:45;4.78;;;3.53;;
44985;SDS011;30721;49.380;7.736;2023-04-24T06:35:10;4.80;;;3.33;;
44985;SDS011;30721;49.380;7.736;2023-04-24T06:37:38;5.25;;;3.33;;
44985;SDS011;30721;49.380;7.736;2023-04-24T06:40:04;3.90;;;3.47;;
44985;SDS011;30721;49.380;7.736;2023-04-24T06:42:30;4.93;;;3.45;;
44985;SDS011;30721;49.380;7.736;2023-04-24T06:44:56;5.07;;;3.58;;
44985;SDS011;30721;49.380;7.736;2023-04-24T06:47:21;4.43;;;3.45;;
44985;SDS011;30721;49.380;7.736;2023-04-24T06:49:46;4.40;;;3.35;;
44985;SDS011;30721;49.380;7.736;2023-04-24T06:52:12;4.85;;;3.10;;
44985;SDS011;30721;49.380;7.736;2023-04-24T06:54:37;4.28;;;3.00;;
44985;SDS011;30721;49.380;7.736;2023-04-24T06:57:02;4.38;;;3.08;;
44985;SDS011;30721;49.380;7.736;2023-04-24T06:59:28;5.18;;;2.75;;
44985;SDS011;30721;49.380;7.736;2023-04-24T07:01:54;3.75;;;3.17;;
44985;SDS011;30721;49.380;7.736;2023-04-24T07:04:20;4.22;;;3.28;;
44985;SDS011;30721;49.380;7.736;2023-04-24T07:06:45;4.30;;;3.50;;
44985;SDS011;30721;49.380;7.736;2023-04-24T07:09:13;3.90;;;3.20;;
44985;SDS011;30721;49.380;7.736;2023-04-24T07:11:42;4.78;;;3.53;;
44985;SDS011;30721;49.380;7.736;2023-04-24T07:14:07;4.72;;;3.30;;
44985;SDS011;30721;49.380;7.736;2023-04-24T07:16:33;3.40;;;2.80;;
44985;SDS011;30721;49.380;7.736;2023-04-24T07:18:58;4.80;;;3.10;;
44985;SDS011;30721;49.380;7.736;2023-04-24T07:21:24;3.97;;;3.15;;
44985;SDS011;30721;49.380;7.736;2023-04-24T07:23:50;5.53;;;3.15;;
44985;SDS011;30721;49.380;7.736;2023-04-24T07:26:16;4.75;;;3.33;;
44985;SDS011;30721;49.380;7.736;2023-04-24T07:28:41;4.05;;;3.35;;
44985;SDS011;30721;49.380;7.736;2023-04-24T07:31:07;3.42;;;2.97;;
44985;SDS011;30721;49.380;7.736;2023-04-24T07:33:33;3.70;;;3.10;;
44985;SDS011;30721;49.380;7.736;2023-04-24T07:35:59;4.47;;;3.25;;
44985;SDS011;30721;49.380;7.736;2023-04-24T07:38:24;4.18;;;3.20;;
44985;SDS011;30721;49.380;7.736;2023-04-24T07:40:51;3.30;;;3.00;;
44985;SDS011;30721;49.380;7.736;2023-04-24T07:43:16;4.53;;;3.45;;
44985;SDS011;30721;49.380;7.736;2023-04-24T07:45:42;4.47;;;2.92;;
44985;SDS011;30721;49.380;7.736;2023-04-24T07:48:07;2.80;;;2.60;;
44985;SDS011;30721;49.380;7.736;2023-04-24T07:50:34;3.63;;;3.05;;
44985;SDS011;30721;49.380;7.736;2023-04-24T07:52:59;4.20;;;3.20;;
44985;SDS011;30721;49.380;7.736;2023-04-24T07:55:25;2.95;;;2.58;;
44985;SDS011;30721;49.380;7.736;2023-04-24T07:57:50;3.97;;;2.70;;
44985;SDS011;30721;49.380;7.736;2023-04-24T08:00:16;3.63;;;2.58;;
44985;SDS011;30721;49.380;7.736;2023-04-24T08:02:42;5.03;;;2.60;;
44985;SDS011;30721;49.380;7.736;2023-04-24T08:05:07;2.67;;;2.35;;
44985;SDS011;30721;49.380;7.736;2023-04-24T08:07:33;3.50;;;3.05;;
44985;SDS011;30721;49.380;7.736;2023-04-24T08:09:58;3.47;;;2.70;;
44985;SDS011;30721;49.380;7.736;2023-04-24T08:12:25;2.78;;;2.40;;
44985;SDS011;30721;49.380;7.736;2023-04-24T08:14:51;3.65;;;3.20;;
44985;SDS011;30721;49.380;7.736;2023-04-24T08:17:17;3.80;;;2.75;;
44985;SDS011;30721;49.380;7.736;2023-04-24T08:19:42;3.30;;;2.90;;
44985;SDS011;30721;49.380;7.736;2023-04-24T08:22:12;3.20;;;2.55;;
44985;SDS011;30721;49.380;7.736;2023-04-24T08:24:38;4.20;;;3.15;;
44985;SDS011;30721;49.380;7.736;2023-04-24T08:27:03;3.75;;;2.85;;
44985;SDS011;30721;49.380;7.736;2023-04-24T08:29:28;3.92;;;3.05;;
44985;SDS011;30721;49.380;7.736;2023-04-24T08:31:54;3.65;;;3.03;;
44985;SDS011;30721;49.380;7.736;2023-04-24T08:34:20;4.93;;;3.20;;
44985;SDS011;30721;49.380;7.736;2023-04-24T08:36:46;4.00;;;2.97;;
44985;SDS011;30721;49.380;7.736;2023-04-24T08:39:11;5.05;;;3.15;;
44985;SDS011;30721;49.380;7.736;2023-04-24T08:41:37;4.30;;;3.85;;
44985;SDS011;30721;49.380;7.736;2023-04-24T08:44:03;4.30;;;2.85;;
44985;SDS011;30721;49.380;7.736;2023-04-24T08:46:29;4.65;;;3.17;;
44985;SDS011;30721;49.380;7.736;2023-04-24T08:48:55;5.35;;;3.40;;
44985;SDS011;30721;49.380;7.736;2023-04-24T08:51:21;5.63;;;3.90;;
44985;SDS011;30721;49.380;7.736;2023-04-24T08:53:46;4.35;;;3.45;;
44985;SDS011;30721;49.380;7.736;2023-04-24T08:56:12;4.20;;;3.25;;
44985;SDS011;30721;49.380;7.736;2023-04-24T08:58:38;5.50;;;3.97;;
44985;SDS011;30721;49.380;7.736;2023-04-24T09:01:04;6.00;;;3.80;;
44985;SDS011;30721;49.380;7.736;2023-04-24T09:03:29;5.43;;;3.80;;
44985;SDS011;30721;49.380;7.736;2023-04-24T09:05:56;5.32;;;4.38;;
44985;SDS011;30721;49.380;7.736;2023-04-24T09:08:23;5.05;;;3.75;;
44985;SDS011;30721;49.380;7.736;2023-04-24T09:10:50;5.07;;;4.10;;
44985;SDS011;30721;49.380;7.736;2023-04-24T09:13:15;7.38;;;4.35;;
44985;SDS011;30721;49.380;7.736;2023-04-24T09:15:42;5.88;;;4.40;;
44985;SDS011;30721;49.380;7.736;2023-04-24T09:18:07;6.57;;;4.18;;
44985;SDS011;30721;49.380;7.736;2023-04-24T09:20:33;7.57;;;4.97;;
44985;SDS011;30721;49.380;7.736;2023-04-24T09:23:00;5.15;;;3.92;;
44985;SDS011;30721;49.380;7.736;2023-04-24T09:25:32;5.95;;;4.32;;
44985;SDS011;30721;49.380;7.736;2023-04-24T09:28:01;6.45;;;4.60;;
44985;SDS011;30721;49.380;7.736;2023-04-24T09:30:28;5.15;;;4.10;;
44985;SDS011;30721;49.380;7.736;2023-04-24T09:33:09;6.57;;;5.03;;
44985;SDS011;30721;49.380;7.736;2023-04-24T09:35:41;5.00;;;4.20;;
44985;SDS011;30721;49.380;7.736;2023-04-24T09:38:10;7.28;;;5.00;;
44985;SDS011;30721;49.380;7.736;2023-04-24T09:40:35;6.22;;;4.38;;
44985;SDS011;30721;49.380;7.736;2023-04-24T09:43:01;7.50;;;4.50;;
44985;SDS011;30721;49.380;7.736;2023-04-24T09:45:28;5.75;;;4.03;;
44985;SDS011;30721;49.380;7.736;2023-04-24T09:48:00;5.70;;;4.32;;
44985;SDS011;30721;49.380;7.736;2023-04-24T09:50:26;6.50;;;4.82;;
44985;SDS011;30721;49.380;7.736;2023-04-24T09:52:58;6.72;;;4.68;;
44985;SDS011;30721;49.380;7.736;2023-04-24T09:55:24;5.40;;;4.60;;
44985;SDS011;30721;49.380;7.736;2023-04-24T09:57:57;6.25;;;4.53;;
44985;SDS011;30721;49.380;7.736;2023-04-24T10:00:28;5.40;;;4.30;;
44985;SDS011;30721;49.380;7.736;2023-04-24T10:03:02;5.72;;;4.53;;
44985;SDS011;30721;49.380;7.736;2023-04-24T10:05:32;7.45;;;4.97;;
44985;SDS011;30721;49.380;7.736;2023-04-24T10:08:03;7.97;;;4.57;;
44985;SDS011;30721;49.380;7.736;2023-04-24T10:10:34;7.10;;;4.45;;
44985;SDS011;30721;49.380;7.736;2023-04-24T10:13:03;7.57;;;4.50;;
44985;SDS011;30721;49.380;7.736;2023-04-24T10:15:29;10.05;;;4.97;;
44985;SDS011;30721;49.380;7.736;2023-04-24T10:18:15;6.15;;;4.68;;
44985;SDS011;30721;49.380;7.736;2023-04-24T10:20:40;5.85;;;4.85;;
44985;SDS011;30721;49.380;7.736;2023-04-24T10:23:06;6.00;;;5.05;;
44985;SDS011;30721;49.380;7.736;2023-04-24T10:25:34;7.53;;;4.75;;
44985;SDS011;30721;49.380;7.736;2023-04-24T10:28:01;6.65;;;5.07;;
44985;SDS011;30721;49.380;7.736;2023-04-24T10:30:29;8.38;;;5.05;;
44985;SDS011;30721;49.380;7.736;2023-04-24T10:32:59;8.50;;;5.70;;
44985;SDS011;30721;49.380;7.736;2023-04-24T10:35:24;7.20;;;5.15;;
44985;SDS011;30721;49.380;7.736;2023-04-24T10:40:35;7.05;;;5.45;;
44985;SDS011;30721;49.380;7.736;2023-04-24T10:43:07;7.72;;;5.57;;
44985;SDS011;30721;49.380;7.736;2023-04-24T10:45:36;8.50;;;5.60;;
44985;SDS011;30721;49.380;7.736;2023-04-24T10:48:05;9.38;;;7.05;;
44985;SDS011;30721;49.380;7.736;2023-04-24T10:53:30;10.32;;;5.57;;
44985;SDS011;30721;49.380;7.736;2023-04-24T11:01:05;7.45;;;5.45;;
44985;SDS011;30721;49.380;7.736;2023-04-24T11:03:32;6.93;;;5.15;;
44985;SDS011;30721;49.380;7.736;2023-04-24T11:05:59;8.25;;;5.40;;
44985;SDS011;30721;49.380;7.736;2023-04-24T11:08:37;7.70;;;5.00;;
44985;SDS011;30721;49.380;7.736;2023-04-24T11:11:14;6.50;;;5.03;;
44985;SDS011;30721;49.380;7.736;2023-04-24T11:16:26;6.28;;;4.68;;
44985;SDS011;30721;49.380;7.736;2023-04-24T11:27:12;7.90;;;5.10;;
44985;SDS011;30721;49.380;7.736;2023-04-24T11:34:44;9.77;;;4.95;;
44985;SDS011;30721;49.380;7.736;2023-04-24T11:37:11;7.28;;;4.93;;
44985;SDS011;30721;49.380;7.736;2023-04-24T11:39:36;7.00;;;5.00;;
44985;SDS011;30721;49.380;7.736;2023-04-24T11:42:03;7.03;;;4.97;;
44985;SDS011;30721;49.380;7.736;2023-04-24T11:44:28;6.90;;;5.03;;
44985;SDS011;30721;49.380;7.736;2023-04-24T11:46:55;5.93;;;4.53;;
44985;SDS011;30721;49.380;7.736;2023-04-24T11:49:21;4.80;;;4.05;;
44985;SDS011;30721;49.380;7.736;2023-04-24T11:51:46;5.65;;;4.22;;
44985;SDS011;30721;49.380;7.736;2023-04-24T11:54:12;8.45;;;4.68;;
44985;SDS011;30721;49.380;7.736;2023-04-24T11:56:37;6.60;;;4.72;;
44985;SDS011;30721;49.380;7.736;2023-04-24T11:59:03;5.72;;;4.13;;
44985;SDS011;30721;49.380;7.736;2023-04-24T12:01:29;8.75;;;4.50;;
44985;SDS011;30721;49.380;7.736;2023-04-24T12:03:59;6.60;;;3.95;;
44985;SDS011;30721;49.380;7.736;2023-04-24T12:06:25;6.13;;;4.47;;
44985;SDS011;30721;49.380;7.736;2023-04-24T12:08:52;5.03;;;4.18;;
44985;SDS011;30721;49.380;7.736;2023-04-24T12:11:17;7.60;;;4.80;;
44985;SDS011;30721;49.380;7.736;2023-04-24T12:13:43;4.40;;;4.00;;
44985;SDS011;30721;49.380;7.736;2023-04-24T12:16:09;6.25;;;4.72;;
44985;SDS011;30721;49.380;7.736;2023-04-24T12:18:40;6.93;;;4.20;;
44985;SDS011;30721;49.380;7.736;2023-04-24T12:21:19;6.22;;;4.40;;
44985;SDS011;30721;49.380;7.736;2023-04-24T12:23:50;6.30;;;4.35;;
44985;SDS011;30721;49.380;7.736;2023-04-24T12:26:16;6.63;;;4.75;;
44985;SDS011;30721;49.380;7.736;2023-04-24T12:28:45;7.45;;;4.47;;
44985;SDS011;30721;49.380;7.736;2023-04-24T12:31:14;5.57;;;4.28;;
44985;SDS011;30721;49.380;7.736;2023-04-24T12:33:40;5.03;;;4.10;;
44985;SDS011;30721;49.380;7.736;2023-04-24T12:36:06;6.28;;;4.03;;
44985;SDS011;30721;49.380;7.736;2023-04-24T12:38:31;5.75;;;4.15;;
44985;SDS011;30721;49.380;7.736;2023-04-24T12:41:12;5.80;;;4.43;;
44985;SDS011;30721;49.380;7.736;2023-04-24T12:43:38;5.00;;;4.13;;
44985;SDS011;30721;49.380;7.736;2023-04-24T12:46:15;5.32;;;4.05;;
44985;SDS011;30721;49.380;7.736;2023-04-24T12:48:41;6.72;;;4.45;;
44985;SDS011;30721;49.380;7.736;2023-04-24T12:51:06;5.45;;;4.03;;
44985;SDS011;30721;49.380;7.736;2023-04-24T12:53:31;5.00;;;4.40;;
44985;SDS011;30721;49.380;7.736;2023-04-24T12:55:57;5.85;;;3.72;;
44985;SDS011;30721;49.380;7.736;2023-04-24T12:58:22;5.75;;;4.10;;
44985;SDS011;30721;49.380;7.736;2023-04-24T13:00:48;4.55;;;3.65;;
44985;SDS011;30721;49.380;7.736;2023-04-24T13:03:13;4.68;;;4.10;;
44985;SDS011;30721;49.380;7.736;2023-04-24T13:05:39;5.97;;;4.15;;
44985;SDS011;30721;49.380;7.736;2023-04-24T13:08:05;5.38;;;4.25;;
44985;SDS011;30721;49.380;7.736;2023-04-24T13:10:30;5.35;;;4.20;;
44985;SDS011;30721;49.380;7.736;2023-04-24T13:12:56;5.88;;;4.85;;
44985;SDS011;30721;49.380;7.736;2023-04-24T13:15:22;7.30;;;4.97;;
44985;SDS011;30721;49.380;7.736;2023-04-24T13:17:47;5.75;;;4.20;;
44985;SDS011;30721;49.380;7.736;2023-04-24T13:20:12;5.53;;;4.28;;
44985;SDS011;30721;49.380;7.736;2023-04-24T13:22:38;4.72;;;4.07;;
44985;SDS011;30721;49.380;7.736;2023-04-24T13:25:04;4.53;;;4.00;;
44985;SDS011;30721;49.380;7.736;2023-04-24T13:27:31;5.45;;;4.50;;
44985;SDS011;30721;49.380;7.736;2023-04-24T13:29:56;5.38;;;4.43;;
44985;SDS011;30721;49.380;7.736;2023-04-24T13:32:21;6.25;;;4.63;;
44985;SDS011;30721;49.380;7.736;2023-04-24T13:34:53;6.05;;;4.10;;
44985;SDS011;30721;49.380;7.736;2023-04-24T13:37:18;4.85;;;4.15;;
44985;SDS011;30721;49.380;7.736;2023-04-24T13:39:44;6.53;;;5.55;;
44985;SDS011;30721;49.380;7.736;2023-04-24T13:42:09;8.98;;;4.88;;
44985;SDS011;30721;49.380;7.736;2023-04-24T13:44:35;8.73;;;6.18;;
44985;SDS011;30721;49.380;7.736;2023-04-24T13:47:01;6.28;;;4.97;;
44985;SDS011;30721;49.380;7.736;2023-04-24T13:49:26;7.03;;;4.85;;
44985;SDS011;30721;49.380;7.736;2023-04-24T13:51:53;5.40;;;4.57;;
44985;SDS011;30721;49.380;7.736;2023-04-24T13:54:19;6.18;;;4.63;;
44985;SDS011;30721;49.380;7.736;2023-04-24T13:56:45;5.55;;;4.28;;
44985;SDS011;30721;49.380;7.736;2023-04-24T13:59:11;5.85;;;4.03;;
44985;SDS011;30721;49.380;7.736;2023-04-24T14:01:37;5.68;;;3.65;;
44985;SDS011;30721;49.380;7.736;2023-04-24T14:04:03;4.47;;;3.38;;
44985;SDS011;30721;49.380;7.736;2023-04-24T14:06:28;4.90;;;3.72;;
44985;SDS011;30721;49.380;7.736;2023-04-24T14:08:54;4.90;;;3.92;;
44985;SDS011;30721;49.380;7.736;2023-04-24T14:11:19;5.65;;;4.18;;
44985;SDS011;30721;49.380;7.736;2023-04-24T14:13:45;6.28;;;4.10;;
44985;SDS011;30721;49.380;7.736;2023-04-24T14:16:10;5.28;;;4.00;;
44985;SDS011;30721;49.380;7.736;2023-04-24T14:18:36;4.53;;;3.83;;
44985;SDS011;30721;49.380;7.736;2023-04-24T14:21:02;5.18;;;3.95;;
44985;SDS011;30721;49.380;7.736;2023-04-24T14:23:28;4.75;;;3.92;;
44985;SDS011;30721;49.380;7.736;2023-04-24T14:25:54;5.38;;;4.13;;
44985;SDS011;30721;49.380;7.736;2023-04-24T14:28:19;4.97;;;4.03;;
44985;SDS011;30721;49.380;7.736;2023-04-24T14:30:45;6.32;;;4.00;;
44985;SDS011;30721;49.380;7.736;2023-04-24T14:33:11;5.53;;;3.88;;
44985;SDS011;30721;49.380;7.736;2023-04-24T14:35:37;5.35;;;3.85;;
44985;SDS011;30721;49.380;7.736;2023-04-24T14:38:03;5.65;;;3.80;;
44985;SDS011;30721;49.380;7.736;2023-04-24T14:40:28;5.03;;;3.40;;
44985;SDS011;30721;49.380;7.736;2023-04-24T14:42:54;5.03;;;3.58;;
44985;SDS011;30721;49.380;7.736;2023-04-24T14:45:22;5.50;;;3.90;;
44985;SDS011;30721;49.380;7.736;2023-04-24T14:47:47;3.83;;;3.30;;
44985;SDS011;30721;49.380;7.736;2023-04-24T14:50:12;4.90;;;3.15;;
44985;SDS011;30721;49.380;7.736;2023-04-24T14:52:38;4.45;;;2.67;;
44985;SDS011;30721;49.380;7.736;2023-04-24T14:55:04;2.90;;;2.30;;
44985;SDS011;30721;49.380;7.736;2023-04-24T14:57:30;3.03;;;2.40;;
44985;SDS011;30721;49.380;7.736;2023-04-24T14:59:55;3.42;;;2.70;;
44985;SDS011;30721;49.380;7.736;2023-04-24T15:02:20;5.50;;;3.35;;
44985;SDS011;30721;49.380;7.736;2023-04-24T15:04:46;3.13;;;2.65;;
44985;SDS011;30721;49.380;7.736;2023-04-24T15:07:11;3.50;;;2.63;;
44985;SDS011;30721;49.380;7.736;2023-04-24T15:09:37;3.70;;;2.70;;